Airfield :
LOGIN :

Register | Disclaimer

   EN    FR    IT 

 










Legend :    VFR   Marginal VFR   IFR   Intensive IFR   Very Intensive IFR
Visi :
Ceiling :
>= 8 km
>= 3000ft
5 to 8 km
1000 to 3000 ft
1500m to 5 km
500 to 1000 ft
800 to 1500m
200 to 500 ft
< 800m
< 200 ft
Symbols :   Thunderstorms  Fog  Heavy snow  Heavy precipitations  Wind > 20 kt
SIGMETs :     Misc.  Thunderstorms  Icing  Turbulence  Mountain Waves  Volcanic Ashes






- Airport Elevation : 33 ft
- IATA code : MHZ


EGUN - RAF Mildenhall

CURRENT METAR :
  • 102356Z AUTO 25011KT 9999 FEW210 07/06 A2969 RMK AO2 SLP057 60010 T00690060 10115 20069 401151005 52028 .

EXPIRED METARs :
  • 102256Z AUTO 25014KT 9999 OVC075 08/08 A2967 RMK AO2 SLP051 T00840083 .
  • 102201Z AUTO 25013KT 9999 SCT018 SCT022 09/09 A2964 RMK AO2 SLP040 $
  • 102145Z AUTO 25009KT 9999 -RA BKN017 OVC026 09/09 A2963 RMK AO2 RAB2056E26RAB30 CIG 017V025 BKN V FEW SLP037 $
  • 102130Z AUTO 26008KT 9999 -RA FEW020 BKN025 BKN033 BKN046 OVC060 09/09 A2963 RMK AO2 RAB2056E26RAB30 CIG 025V030 SLP037 $
  • 102117Z AUTO 26013KT 9999 -RA FEW032 SCT041 09/09 A2962 RMK AO2 RAB2056 SLP034 $

TAF AMD TAF EGUN
Valid from the 10 at 22:00 until the 12 at 02:00 UTC


102214Z 1022/1202 24010G25KT 9999 SCT012 BKN025 520003 QNH2964INS
BECMG 1102/1103 22010G20KT 9999 SCT020 QNH2952INS
TEMPO 1116/1120 9000 -SHRA
BECMG 1120/1121 23012KT 9999 SCT015 QNH2955INS TX09/1022Z TN03/1108Z



MET'MAP, your aeronautical weather chart ! - Copyright ORBIFLY December 2007 - Disclaimer

ORBIFLY MET'MAP TEAM :

Programming & Development : Alexandra Zaïnal
Concept & original design : Baudouin d'Aumeries
Assistance for programming : Marc-Olivier Méhu
Technical & hardware support : Manuel Goepfert

Contact : metmap@orbifly.com




SOURCES & CREDITS :

   NOAA